createdAt,value
2023-04-17T00:02:39.806Z,20.73
2023-04-17T00:05:46.363Z,20.95
2023-04-17T00:08:49.781Z,21.63
2023-04-17T00:11:52.963Z,21.80
2023-04-17T00:14:56.173Z,21.48
2023-04-17T00:18:00.774Z,22.77
2023-04-17T00:21:04.075Z,22.02
2023-04-17T00:24:07.775Z,21.88
2023-04-17T00:27:11.072Z,22.27
2023-04-17T00:30:14.685Z,22.05
2023-04-17T00:33:19.333Z,21.60
2023-04-17T00:36:22.619Z,21.80
2023-04-17T00:39:26.150Z,21.95
2023-04-17T00:42:29.428Z,20.83
2023-04-17T00:45:32.850Z,21.52
2023-04-17T00:48:40.942Z,20.75
2023-04-17T00:51:44.169Z,21.35
2023-04-17T00:54:47.568Z,21.50
2023-04-17T00:57:51.261Z,22.02
2023-04-17T01:00:54.671Z,22.55
2023-04-17T01:04:01.863Z,22.52
2023-04-17T01:07:05.375Z,22.35
2023-04-17T01:10:09.536Z,23.73
2023-04-17T01:13:13.071Z,22.75
2023-04-17T01:16:18.400Z,23.00
2023-04-17T01:19:23.989Z,22.80
2023-04-17T01:22:27.234Z,23.77
2023-04-17T01:25:36.230Z,23.30
2023-04-17T01:28:39.625Z,23.27
2023-04-17T01:31:42.855Z,23.85
2023-04-17T01:34:46.216Z,23.60
2023-04-17T01:37:49.443Z,22.95
2023-04-17T01:40:54.636Z,23.92
2023-04-17T01:43:57.810Z,23.73
2023-04-17T01:47:01.036Z,23.30
2023-04-17T01:50:04.717Z,23.65
2023-04-17T01:53:08.030Z,23.33
2023-04-17T01:56:13.742Z,23.13
2023-04-17T01:59:16.992Z,23.77
2023-04-17T02:02:20.544Z,24.13
2023-04-17T02:05:24.098Z,23.40
2023-04-17T02:08:27.544Z,22.95
2023-04-17T02:11:32.276Z,24.02
2023-04-17T02:14:35.446Z,23.27
2023-04-17T02:17:38.708Z,24.42
2023-04-17T02:20:42.310Z,23.83
2023-04-17T02:23:45.859Z,24.52
2023-04-17T02:26:52.702Z,24.58
2023-04-17T02:29:55.983Z,24.13
2023-04-17T02:32:59.701Z,24.52
2023-04-17T02:36:02.942Z,24.60
2023-04-17T02:42:18.084Z,27.45
2023-04-17T02:45:21.543Z,26.95
2023-04-17T02:48:25.291Z,27.70
2023-04-17T02:51:29.183Z,27.65
2023-04-17T02:54:32.421Z,28.65
2023-04-17T02:57:37.484Z,28.40
2023-04-17T03:00:41.226Z,29.95
2023-04-17T03:03:50.092Z,31.38
2023-04-17T03:06:53.655Z,30.23
2023-04-17T03:09:57.538Z,30.98
2023-04-17T03:13:03.602Z,31.33
2023-04-17T03:16:09.302Z,30.92
2023-04-17T03:19:14.322Z,30.83
2023-04-17T03:22:17.522Z,28.50
2023-04-17T03:25:21.298Z,29.42
2023-04-17T03:28:30.322Z,29.02
2023-04-17T03:31:33.558Z,28.67
2023-04-17T03:34:37.032Z,28.77
2023-04-17T03:37:40.244Z,28.10
2023-04-17T03:40:43.678Z,29.33
2023-04-17T03:43:49.015Z,28.10
2023-04-17T03:46:52.246Z,28.20
2023-04-17T03:49:55.903Z,28.33
2023-04-17T03:53:00.219Z,28.65
2023-04-17T03:56:05.300Z,29.70
2023-04-17T03:59:14.667Z,28.73
2023-04-17T04:02:20.079Z,29.20
2023-04-17T04:05:25.762Z,31.10
2023-04-17T04:08:29.975Z,30.77
2023-04-17T04:11:33.895Z,29.17
2023-04-17T04:14:41.260Z,30.67
2023-04-17T04:17:45.349Z,31.95
2023-04-17T04:20:48.653Z,30.90
2023-04-17T04:27:05.478Z,32.03
2023-04-17T04:30:14.278Z,31.15
2023-04-17T04:33:21.145Z,31.27
2023-04-17T04:36:25.130Z,31.08
2023-04-17T04:39:40.069Z,30.80
2023-04-17T04:42:49.426Z,32.58
2023-04-17T04:45:59.061Z,32.50
2023-04-17T04:49:05.691Z,32.92
2023-04-17T04:52:08.981Z,32.58
2023-04-17T04:55:12.605Z,34.35
2023-04-17T04:58:22.344Z,24.57
2023-04-17T05:01:30.912Z,34.85
2023-04-17T05:04:34.526Z,35.42
2023-04-17T05:07:38.494Z,37.33
2023-04-17T05:10:46.070Z,38.38
2023-04-17T05:13:50.488Z,45.75
2023-04-17T05:17:01.596Z,44.42
2023-04-17T05:20:08.896Z,41.95
2023-04-17T05:23:21.507Z,43.08
2023-04-17T05:26:27.737Z,40.80
2023-04-17T05:29:32.992Z,46.80
2023-04-17T05:32:37.854Z,47.83
2023-04-17T05:36:04.357Z,48.80
2023-04-17T05:39:12.021Z,49.47
2023-04-17T05:42:17.874Z,45.90
2023-04-17T05:45:24.209Z,42.38
2023-04-17T05:48:30.473Z,41.67
2023-04-17T05:51:33.713Z,38.13
2023-04-17T05:54:37.279Z,35.88
2023-04-17T05:57:40.757Z,36.47
2023-04-17T06:00:44.107Z,34.80
2023-04-17T06:03:51.693Z,33.55
2023-04-17T06:06:59.743Z,33.25
2023-04-17T06:10:03.723Z,30.52
2023-04-17T06:13:07.574Z,31.92
2023-04-17T06:16:10.775Z,36.72
2023-04-17T06:19:15.533Z,35.17
2023-04-17T06:22:18.937Z,32.80
2023-04-17T06:25:23.711Z,33.72
2023-04-17T06:28:27.452Z,32.92
2023-04-17T06:31:32.301Z,31.13
2023-04-17T06:34:46.117Z,28.45
2023-04-17T06:38:09.818Z,26.85
2023-04-17T06:41:14.314Z,23.27
2023-04-17T06:44:18.269Z,21.85
2023-04-17T06:47:23.347Z,20.98
2023-04-17T06:50:32.330Z,19.40
2023-04-17T06:53:38.834Z,18.52
2023-04-17T06:56:42.030Z,16.20
2023-04-17T06:59:45.229Z,16.35
2023-04-17T07:02:48.644Z,15.20
2023-04-17T07:05:53.332Z,14.23
2023-04-17T07:08:56.539Z,14.50
2023-04-17T07:11:59.817Z,14.82
2023-04-17T07:15:03.164Z,14.90
2023-04-17T07:18:06.804Z,14.38
2023-04-17T07:21:11.613Z,14.00
2023-04-17T07:24:14.812Z,12.63
2023-04-17T07:27:18.145Z,12.10
2023-04-17T07:30:21.359Z,11.80
2023-04-17T07:33:24.822Z,10.45
2023-04-17T07:36:29.951Z,10.50
2023-04-17T07:39:33.145Z,10.55
2023-04-17T07:42:36.530Z,10.35
2023-04-17T07:45:41.667Z,10.77
2023-04-17T07:48:45.334Z,10.68
2023-04-17T07:51:49.936Z,11.35
2023-04-17T07:54:53.121Z,10.70
2023-04-17T07:57:56.710Z,10.30
2023-04-17T08:00:59.892Z,9.73
2023-04-17T08:04:03.502Z,10.18
2023-04-17T08:07:10.654Z,9.98
2023-04-17T08:10:14.008Z,10.50
2023-04-17T08:13:17.368Z,11.38
2023-04-17T08:16:20.618Z,11.43
2023-04-17T08:19:24.041Z,11.45
2023-04-17T08:22:29.069Z,12.27
2023-04-17T08:25:32.620Z,11.35
2023-04-17T08:28:35.925Z,10.40
2023-04-17T08:31:40.349Z,10.27
2023-04-17T08:34:45.404Z,11.00
2023-04-17T08:37:50.162Z,15.88
2023-04-17T08:40:55.152Z,10.85
2023-04-17T08:44:00.073Z,9.93
2023-04-17T08:47:04.572Z,9.27
2023-04-17T08:50:10.028Z,10.80
2023-04-17T08:53:14.705Z,10.55
2023-04-17T08:56:17.932Z,11.30
2023-04-17T08:59:22.675Z,10.88
2023-04-17T09:02:27.780Z,10.52
2023-04-17T09:05:33.613Z,10.93
2023-04-17T09:08:38.832Z,10.15
2023-04-17T09:11:42.029Z,10.27
2023-04-17T09:14:46.055Z,10.82
2023-04-17T09:17:49.299Z,10.88
2023-04-17T09:20:52.974Z,10.88
2023-04-17T09:23:59.409Z,11.23
2023-04-17T09:27:20.649Z,11.40
2023-04-17T09:30:27.038Z,11.40
2023-04-17T09:33:30.581Z,12.05
2023-04-17T09:36:35.310Z,12.38
2023-04-17T09:39:40.763Z,11.95
2023-04-17T09:42:56.188Z,12.25
2023-04-17T09:45:59.625Z,10.80
2023-04-17T09:49:06.902Z,11.10
2023-04-17T09:52:10.576Z,10.93
2023-04-17T09:55:16.510Z,12.00
2023-04-17T09:58:20.145Z,12.30
2023-04-17T10:01:23.936Z,12.65
2023-04-17T10:04:27.456Z,11.68
2023-04-17T10:07:31.446Z,11.48
2023-04-17T10:10:36.685Z,11.32
2023-04-17T10:13:42.830Z,12.18
2023-04-17T10:16:48.060Z,11.68
2023-04-17T10:19:51.455Z,11.63
2023-04-17T10:22:56.269Z,11.73
2023-04-17T10:26:45.762Z,11.60
2023-04-17T10:29:57.976Z,11.55
2023-04-17T10:33:21.645Z,12.60
2023-04-17T10:36:52.349Z,12.45
2023-04-17T10:40:00.627Z,12.13
2023-04-17T10:43:12.294Z,12.70
2023-04-17T10:46:17.006Z,13.10
2023-04-17T10:49:22.997Z,15.40
2023-04-17T10:52:44.750Z,16.42
2023-04-17T10:55:51.331Z,14.77
2023-04-17T10:58:59.532Z,17.40
2023-04-17T11:02:07.610Z,13.13
2023-04-17T11:05:12.133Z,12.75
2023-04-17T11:08:16.204Z,13.43
2023-04-17T11:11:27.004Z,12.88
2023-04-17T11:14:43.065Z,12.60
2023-04-17T11:17:51.037Z,14.40
2023-04-17T11:20:54.333Z,14.43
2023-04-17T11:23:57.503Z,13.93
2023-04-17T11:27:03.318Z,14.40
2023-04-17T11:30:07.856Z,12.85
2023-04-17T11:33:13.501Z,14.90
2023-04-17T11:36:16.802Z,14.32
2023-04-17T11:39:21.388Z,14.63
2023-04-17T11:42:27.875Z,15.10
2023-04-17T11:45:32.778Z,15.13
2023-04-17T11:48:37.691Z,16.10
2023-04-17T11:51:41.093Z,16.15
2023-04-17T11:54:44.657Z,17.55
2023-04-17T11:57:52.262Z,17.50
2023-04-17T12:01:06.454Z,17.85
2023-04-17T12:04:21.995Z,18.27
2023-04-17T12:07:25.777Z,16.88
2023-04-17T12:10:38.915Z,17.08
2023-04-17T12:13:42.250Z,17.67
2023-04-17T12:16:48.115Z,16.13
2023-04-17T12:19:52.884Z,16.48
2023-04-17T12:22:56.177Z,16.45
2023-04-17T12:25:59.528Z,16.45
2023-04-17T12:29:03.084Z,14.65
2023-04-17T12:32:06.599Z,14.52
2023-04-17T12:35:11.751Z,14.68
2023-04-17T12:38:15.200Z,14.35
2023-04-17T12:41:18.401Z,14.75
2023-04-17T12:44:21.575Z,15.20
2023-04-17T12:47:24.851Z,14.48
2023-04-17T12:50:29.594Z,14.90
2023-04-17T12:53:32.938Z,13.57
2023-04-17T12:56:36.326Z,15.50
2023-04-17T12:59:39.736Z,14.38
2023-04-17T13:02:43.063Z,14.68
2023-04-17T13:05:49.168Z,15.07
2023-04-17T13:08:52.395Z,13.30
2023-04-17T13:11:55.589Z,13.65
2023-04-17T13:14:59.143Z,12.45
2023-04-17T13:18:02.763Z,13.45
2023-04-17T13:21:08.191Z,14.38
2023-04-17T13:24:14.600Z,13.95
2023-04-17T13:27:17.985Z,14.90
2023-04-17T13:30:21.225Z,13.07
2023-04-17T13:33:24.484Z,12.68
2023-04-17T13:36:29.296Z,12.32
2023-04-17T13:39:32.533Z,12.02
2023-04-17T13:42:35.826Z,12.23
2023-04-17T13:45:39.091Z,12.38
2023-04-17T13:48:42.791Z,11.98
2023-04-17T13:51:47.584Z,11.98
2023-04-17T13:54:50.782Z,13.15
2023-04-17T13:57:54.242Z,12.75
2023-04-17T14:00:57.596Z,12.20
2023-04-17T14:04:01.700Z,11.50
2023-04-17T14:07:07.634Z,11.88
2023-04-17T14:10:11.642Z,12.35
2023-04-17T14:13:15.021Z,9.75
2023-04-17T14:16:19.472Z,10.10
2023-04-17T14:19:23.603Z,10.15
2023-04-17T14:22:28.221Z,11.75
2023-04-17T14:25:31.504Z,10.65
2023-04-17T14:28:35.455Z,13.80
2023-04-17T14:31:38.933Z,11.32
2023-04-17T14:34:42.601Z,10.70
2023-04-17T14:37:48.634Z,9.50
2023-04-17T14:40:52.639Z,11.30
2023-04-17T14:43:56.084Z,10.38
2023-04-17T14:46:59.565Z,11.45
2023-04-17T14:50:03.417Z,12.75
2023-04-17T14:53:08.035Z,13.65
2023-04-17T14:56:11.516Z,14.95
2023-04-17T14:59:15.013Z,13.63
2023-04-17T15:02:18.461Z,13.30
2023-04-17T15:05:22.631Z,13.70
2023-04-17T15:08:28.399Z,12.15
2023-04-17T15:11:44.338Z,9.63
2023-04-17T15:14:52.936Z,9.65
2023-04-17T15:17:56.531Z,9.05
2023-04-17T15:21:00.014Z,9.65
2023-04-17T15:24:27.010Z,9.05
2023-04-17T15:27:31.582Z,9.38
2023-04-17T15:34:02.892Z,10.77
2023-04-17T15:37:26.547Z,10.38
2023-04-17T15:41:20.379Z,11.75
2023-04-17T15:44:27.179Z,11.35
2023-04-17T15:48:10.843Z,11.07
2023-04-17T15:55:33.054Z,10.48
2023-04-17T16:02:28.338Z,11.10
2023-04-17T16:05:49.448Z,14.60
2023-04-17T16:08:58.671Z,10.73
2023-04-17T16:12:02.846Z,11.65
2023-04-17T16:15:08.681Z,12.20
2023-04-17T16:18:17.248Z,35.90
2023-04-17T16:21:20.526Z,13.27
2023-04-17T16:24:38.272Z,14.35
2023-04-17T16:27:49.554Z,14.32
2023-04-17T16:31:40.223Z,12.68
2023-04-17T16:37:52.094Z,12.50
2023-04-17T16:40:57.034Z,11.35
2023-04-17T16:47:40.695Z,12.40
2023-04-17T16:50:44.055Z,12.82
2023-04-17T16:53:47.406Z,12.80
2023-04-17T16:56:50.840Z,11.88
2023-04-17T16:59:54.139Z,12.35
2023-04-17T17:02:59.128Z,12.10
2023-04-17T17:06:04.708Z,11.13
2023-04-17T17:09:08.328Z,11.45
2023-04-17T17:12:12.047Z,11.15
2023-04-17T17:15:15.624Z,11.63
2023-04-17T17:18:20.290Z,11.60
2023-04-17T17:21:23.734Z,11.45
2023-04-17T17:24:28.819Z,12.30
2023-04-17T17:27:33.122Z,12.38
2023-04-17T17:30:37.832Z,11.85
2023-04-17T17:33:42.647Z,12.80
2023-04-17T17:36:45.984Z,12.77
2023-04-17T17:39:49.716Z,17.77
2023-04-17T17:42:53.052Z,22.77
2023-04-17T17:45:58.752Z,16.15
2023-04-17T17:49:03.719Z,15.45
2023-04-17T17:52:07.109Z,16.10
2023-04-17T17:55:14.770Z,16.15
2023-04-17T17:58:18.391Z,16.02
2023-04-17T18:01:23.817Z,16.17
2023-04-17T18:04:29.870Z,15.00
2023-04-17T18:07:34.073Z,16.00
2023-04-17T18:10:37.571Z,15.90
2023-04-17T18:13:43.609Z,15.60
2023-04-17T18:16:48.614Z,14.48
2023-04-17T18:19:53.482Z,14.93
2023-04-17T18:22:57.878Z,17.38
2023-04-17T18:26:03.296Z,22.58
2023-04-17T18:29:07.018Z,16.80
2023-04-17T18:32:11.358Z,16.20
2023-04-17T18:35:16.349Z,15.68
2023-04-17T18:38:19.897Z,17.80
2023-04-17T18:41:23.190Z,22.60
2023-04-17T18:44:26.619Z,16.73
2023-04-17T18:47:30.058Z,16.23
2023-04-17T18:50:34.745Z,18.13
2023-04-17T18:53:40.269Z,16.90
2023-04-17T18:56:47.126Z,21.10
2023-04-17T18:59:55.249Z,15.07
2023-04-17T19:03:00.013Z,16.15
2023-04-17T19:06:10.110Z,17.27
2023-04-17T19:09:14.360Z,17.83
2023-04-17T19:12:21.611Z,16.67
2023-04-17T19:15:26.101Z,16.95
2023-04-17T19:18:32.144Z,16.92
2023-04-17T19:21:38.654Z,18.38
2023-04-17T19:24:42.054Z,17.70
2023-04-17T19:27:46.170Z,19.83
2023-04-17T19:30:50.788Z,17.92
2023-04-17T19:33:56.113Z,18.38
2023-04-17T19:37:00.991Z,18.27
2023-04-17T19:40:14.283Z,35.25
2023-04-17T19:43:25.127Z,19.75
2023-04-17T19:46:29.232Z,19.38
2023-04-17T19:49:32.578Z,18.33
2023-04-17T19:52:38.268Z,19.00
2023-04-17T19:55:42.381Z,18.58
2023-04-17T19:58:45.750Z,19.92
2023-04-17T20:01:49.746Z,20.27
2023-04-17T20:04:53.292Z,22.67
2023-04-17T20:07:58.041Z,20.77
2023-04-17T20:11:01.484Z,20.40
2023-04-17T20:14:05.634Z,20.58
2023-04-17T20:17:09.140Z,21.17
2023-04-17T20:20:13.351Z,21.85
2023-04-17T20:23:18.053Z,21.33
2023-04-17T20:26:21.358Z,21.75
2023-04-17T20:29:24.887Z,22.38
2023-04-17T20:32:28.321Z,23.55
2023-04-17T20:35:31.644Z,23.30
2023-04-17T20:38:36.330Z,23.63
2023-04-17T20:41:39.723Z,23.92
2023-04-17T20:44:42.977Z,23.95
2023-04-17T20:47:56.667Z,25.70
2023-04-17T20:51:05.848Z,25.70
2023-04-17T20:54:10.651Z,26.13
2023-04-17T20:57:13.962Z,26.88
2023-04-17T21:00:17.640Z,27.58
2023-04-17T21:03:21.275Z,28.48
2023-04-17T21:06:24.552Z,28.08
2023-04-17T21:09:29.183Z,28.33
2023-04-17T21:12:32.976Z,30.60
2023-04-17T21:15:36.355Z,30.02
2023-04-17T21:18:40.147Z,31.08
2023-04-17T21:21:43.326Z,29.95
2023-04-17T21:24:47.917Z,30.75
2023-04-17T21:27:51.101Z,30.02
2023-04-17T21:30:54.595Z,31.20
2023-04-17T21:33:57.797Z,30.48
2023-04-17T21:37:03.530Z,30.98
2023-04-17T21:40:09.614Z,32.08
2023-04-17T21:43:12.886Z,31.15
2023-04-17T21:46:16.201Z,30.80
2023-04-17T21:49:19.816Z,30.55
2023-04-17T21:52:23.134Z,32.10
2023-04-17T21:55:28.168Z,33.08
2023-04-17T21:58:31.518Z,31.90
2023-04-17T22:01:34.856Z,31.73
2023-04-17T22:04:38.288Z,32.45
2023-04-17T22:07:51.690Z,31.98
2023-04-17T22:10:59.779Z,32.80
2023-04-17T22:14:03.156Z,32.85
2023-04-17T22:17:06.415Z,33.97
2023-04-17T22:20:10.960Z,33.10
2023-04-17T22:23:14.174Z,32.90
2023-04-17T22:26:18.756Z,32.88
2023-04-17T22:29:21.980Z,32.15
2023-04-17T22:32:25.176Z,32.90
2023-04-17T22:35:28.480Z,32.45
2023-04-17T22:38:31.670Z,34.13
2023-04-17T22:41:36.254Z,32.75
2023-04-17T22:44:39.507Z,30.48
2023-04-17T22:47:42.743Z,31.95
2023-04-17T22:50:46.596Z,32.80
2023-04-17T22:53:49.781Z,30.88
2023-04-17T22:56:54.296Z,31.05
2023-04-17T22:59:57.475Z,31.80
2023-04-17T23:07:00.031Z,30.55
2023-04-17T23:10:03.453Z,30.27
2023-04-17T23:13:09.388Z,29.80
2023-04-17T23:16:12.655Z,29.38
2023-04-17T23:19:16.048Z,28.83
2023-04-17T23:22:19.395Z,27.60
2023-04-17T23:25:22.691Z,28.02
2023-04-17T23:28:30.553Z,27.77
2023-04-17T23:31:33.908Z,27.65
2023-04-17T23:34:37.590Z,27.38
2023-04-17T23:37:40.888Z,25.77
2023-04-17T23:40:44.138Z,26.95
2023-04-17T23:43:48.659Z,25.58
2023-04-17T23:46:51.857Z,24.38
2023-04-17T23:49:55.087Z,25.05
2023-04-17T23:52:58.268Z,24.88
2023-04-17T23:56:02.014Z,23.70
2023-04-17T23:59:06.557Z,23.95
